Aristes, PA

9:35 AM EDT on October 21, 2014 (GMT -0400)
Mountain Road | Change Station
CLOSE
Current Station
Personal Weather Station
Location: Numidia, PA
Elevation: 1099 ft
Nearby Weather Stations

Elev 1099 ft 40.85 °N, 76.39 °W | Updated 12 minutes ago

Overcast
Overcast
50.5 °F
Feels Like 50.5 °F
N
1.7
Wind Variable Wind from NNW

Today
High -- | Low -- °F
--% Chance of Precip.
Yesterday
High -- | Low -- °F
Precip. -- in
7:23 AM 6:16 PM
Waning Crescent, 5% visible
Pressure 29.87 in
Visibility 9.0 miles
Clouds Overcast 7500 ft
Dew Point 50 °F
Humidity 98%
Rainfall 0.07 in
Snow Depth Not available.
UV 0 out of 12
Pollen .30 out of 12
Air Quality Not available.
Flu Activity Sporadic
METAR KSEG 211253Z AUTO 00000KT 9SM OVC075 11/09 A2987 RMK AO2 SLP115 T01110089

More Conditions Fewer Conditions

Pressure 29.87 in
Visibility 9.0 miles
Clouds Overcast 7500 ft
Dew Point 50 °F
Humidity 98%
Rainfall 0.07 in
Snow Depth Not available.
UV 0 out of 12
Pollen .30 out of 12
Air Quality Not available.
Flu Activity Sporadic
METAR KSEG 211253Z AUTO 00000KT 9SM OVC075 11/09 A2987 RMK AO2 SLP115 T01110089

More Conditions Fewer Conditions

Nowcast | as of 4:32 am EDT on October 21, 2014

A few showers will be across south central Pennsylvania through 10 am. Most of the showers will be on the light side. The showers are moving east at 25 mph.

×

10-Day Weather Forecast

Almanac

Astronomy

Oct. 21, 2014 Rise Set
Actual Time 7:23 AM EDT 6:16 PM EDT
Civil Twilight 6:55 AM EDT 6:43 PM EDT
Nautical Twilight 6:23 AM EDT 7:15 PM EDT
Astronomical Twilight 5:51 AM EDT 7:47 PM EDT
Moon 5:04 AM EDT 5:09 PM EDT
Length of Visible Light 11h 48m
Length of Day
10h 52m
Tomorrow will be 2m 33s shorter.
Waning Crescent, 5% of the Moon is Illuminated
Today
Waning Crescent
Oct 23
New
Oct 30
First Quarter
Nov 6
Full
Nov 14
Last Quarter

Today's Extremes

State Highs State Lows

Community

WunderPhotos

Upload Photos

1,763,662 photos uploaded!

Nearby

Snow Depth

Station Depth Elevation
No new snow has been reported.

Earthquake Activity

City Distance Mag. Time & Date
No recent earthquake activity has been reported nearby.
Minimum magnitude displayed is 2.5.

Coastal Water Temperatures

Place Temperature
No Stations Reporting

Nearby Weather Stations